sensor_id;sensor_type;location;lat;lon;timestamp;P1;durP1;ratioP1;P2;durP2;ratioP2
9489;SDS011;4783;42.734;23.288;2023-06-22T06:36:46;18.30;;;13.35;;
9489;SDS011;4783;42.734;23.288;2023-06-22T06:39:11;20.23;;;13.75;;
9489;SDS011;4783;42.734;23.288;2023-06-22T06:41:37;19.15;;;12.77;;
9489;SDS011;4783;42.734;23.288;2023-06-22T06:51:28;15.75;;;13.15;;
9489;SDS011;4783;42.734;23.288;2023-06-22T06:53:54;24.02;;;12.70;;
9489;SDS011;4783;42.734;23.288;2023-06-22T06:56:19;15.93;;;13.20;;
9489;SDS011;4783;42.734;23.288;2023-06-22T06:58:44;24.60;;;12.55;;
9489;SDS011;4783;42.734;23.288;2023-06-22T07:01:10;21.42;;;13.70;;
9489;SDS011;4783;42.734;23.288;2023-06-22T07:03:36;19.75;;;12.48;;
9489;SDS011;4783;42.734;23.288;2023-06-22T07:06:01;15.88;;;11.48;;
9489;SDS011;4783;42.734;23.288;2023-06-22T07:15:41;20.73;;;11.95;;
9489;SDS011;4783;42.734;23.288;2023-06-22T07:18:07;18.10;;;10.75;;
9489;SDS011;4783;42.734;23.288;2023-06-22T07:29:03;22.42;;;12.00;;
9489;SDS011;4783;42.734;23.288;2023-06-22T07:31:29;18.90;;;11.32;;
9489;SDS011;4783;42.734;23.288;2023-06-22T07:44:04;21.48;;;12.13;;
9489;SDS011;4783;42.734;23.288;2023-06-22T07:46:31;13.52;;;10.93;;
9489;SDS011;4783;42.734;23.288;2023-06-22T07:48:56;18.27;;;11.07;;
9489;SDS011;4783;42.734;23.288;2023-06-22T07:51:22;17.83;;;12.32;;
9489;SDS011;4783;42.734;23.288;2023-06-22T07:53:47;18.40;;;11.15;;
9489;SDS011;4783;42.734;23.288;2023-06-22T07:56:13;14.80;;;11.05;;
9489;SDS011;4783;42.734;23.288;2023-06-22T08:03:43;14.25;;;9.85;;
9489;SDS011;4783;42.734;23.288;2023-06-22T08:06:09;10.77;;;9.50;;
9489;SDS011;4783;42.734;23.288;2023-06-22T08:08:34;20.27;;;16.77;;
9489;SDS011;4783;42.734;23.288;2023-06-22T08:10:59;14.75;;;10.77;;
9489;SDS011;4783;42.734;23.288;2023-06-22T08:31:50;11.38;;;10.25;;
9489;SDS011;4783;42.734;23.288;2023-06-22T08:34:15;17.35;;;10.60;;
9489;SDS011;4783;42.734;23.288;2023-06-22T08:36:40;12.20;;;11.00;;
9489;SDS011;4783;42.734;23.288;2023-06-22T08:39:09;11.68;;;10.48;;
9489;SDS011;4783;42.734;23.288;2023-06-22T08:41:35;11.00;;;9.95;;
9489;SDS011;4783;42.734;23.288;2023-06-22T09:18:51;15.40;;;9.05;;
9489;SDS011;4783;42.734;23.288;2023-06-22T09:21:16;11.43;;;9.18;;
9489;SDS011;4783;42.734;23.288;2023-06-22T09:23:42;9.45;;;8.55;;
9489;SDS011;4783;42.734;23.288;2023-06-22T09:26:07;10.07;;;8.45;;
9489;SDS011;4783;42.734;23.288;2023-06-22T09:28:33;9.60;;;8.70;;
9489;SDS011;4783;42.734;23.288;2023-06-22T09:30:58;10.40;;;8.25;;
9489;SDS011;4783;42.734;23.288;2023-06-22T09:33:25;9.55;;;8.52;;
9489;SDS011;4783;42.734;23.288;2023-06-22T09:35:50;8.02;;;7.22;;
9489;SDS011;4783;42.734;23.288;2023-06-22T09:38:16;12.20;;;8.27;;
9489;SDS011;4783;42.734;23.288;2023-06-22T09:40:41;13.73;;;7.95;;
9489;SDS011;4783;42.734;23.288;2023-06-22T09:43:06;8.70;;;7.80;;
9489;SDS011;4783;42.734;23.288;2023-06-22T09:45:31;8.87;;;8.00;;
9489;SDS011;4783;42.734;23.288;2023-06-22T09:47:57;7.93;;;7.20;;
9489;SDS011;4783;42.734;23.288;2023-06-22T09:50:22;12.57;;;8.52;;
9489;SDS011;4783;42.734;23.288;2023-06-22T09:52:47;8.73;;;7.50;;
9489;SDS011;4783;42.734;23.288;2023-06-22T09:55:19;11.73;;;8.00;;
9489;SDS011;4783;42.734;23.288;2023-06-22T09:57:44;8.70;;;7.80;;
9489;SDS011;4783;42.734;23.288;2023-06-22T10:00:10;8.82;;;7.93;;
9489;SDS011;4783;42.734;23.288;2023-06-22T10:02:38;8.98;;;7.85;;
9489;SDS011;4783;42.734;23.288;2023-06-22T10:05:03;9.55;;;7.93;;
9489;SDS011;4783;42.734;23.288;2023-06-22T10:07:29;12.45;;;7.50;;
9489;SDS011;4783;42.734;23.288;2023-06-22T10:09:54;9.83;;;7.70;;
9489;SDS011;4783;42.734;23.288;2023-06-22T10:12:19;12.70;;;7.80;;
9489;SDS011;4783;42.734;23.288;2023-06-22T10:14:44;8.43;;;7.63;;
9489;SDS011;4783;42.734;23.288;2023-06-22T10:17:10;8.70;;;7.80;;
9489;SDS011;4783;42.734;23.288;2023-06-22T10:19:35;9.63;;;7.90;;
9489;SDS011;4783;42.734;23.288;2023-06-22T10:22:02;13.13;;;7.80;;
9489;SDS011;4783;42.734;23.288;2023-06-22T10:24:27;8.48;;;7.68;;
9489;SDS011;4783;42.734;23.288;2023-06-22T10:26:53;8.50;;;7.70;;
9489;SDS011;4783;42.734;23.288;2023-06-22T10:29:18;8.30;;;7.50;;
9489;SDS011;4783;42.734;23.288;2023-06-22T10:31:43;10.43;;;7.72;;
9489;SDS011;4783;42.734;23.288;2023-06-22T10:34:08;8.88;;;7.70;;
9489;SDS011;4783;42.734;23.288;2023-06-22T10:36:34;8.40;;;7.47;;
9489;SDS011;4783;42.734;23.288;2023-06-22T10:38:59;7.63;;;6.90;;
9489;SDS011;4783;42.734;23.288;2023-06-22T10:41:26;8.38;;;7.53;;
9489;SDS011;4783;42.734;23.288;2023-06-22T10:43:54;11.20;;;7.10;;
9489;SDS011;4783;42.734;23.288;2023-06-22T10:46:20;9.63;;;7.23;;
9489;SDS011;4783;42.734;23.288;2023-06-22T10:48:45;8.23;;;7.23;;
9489;SDS011;4783;42.734;23.288;2023-06-22T10:51:10;9.40;;;7.33;;
9489;SDS011;4783;42.734;23.288;2023-06-22T10:53:35;9.07;;;7.57;;
9489;SDS011;4783;42.734;23.288;2023-06-22T10:56:01;8.73;;;7.87;;
9489;SDS011;4783;42.734;23.288;2023-06-22T10:58:26;9.10;;;8.20;;
9489;SDS011;4783;42.734;23.288;2023-06-22T11:00:51;10.35;;;7.47;;
9489;SDS011;4783;42.734;23.288;2023-06-22T11:03:17;7.70;;;6.93;;
9489;SDS011;4783;42.734;23.288;2023-06-22T11:05:42;12.13;;;7.72;;
9489;SDS011;4783;42.734;23.288;2023-06-22T11:08:07;12.02;;;6.97;;
9489;SDS011;4783;42.734;23.288;2023-06-22T11:10:32;7.60;;;6.90;;
9489;SDS011;4783;42.734;23.288;2023-06-22T11:12:58;7.13;;;6.43;;
9489;SDS011;4783;42.734;23.288;2023-06-22T11:15:23;8.43;;;6.53;;
9489;SDS011;4783;42.734;23.288;2023-06-22T11:17:49;7.35;;;6.65;;
9489;SDS011;4783;42.734;23.288;2023-06-22T11:20:14;8.43;;;6.63;;
9489;SDS011;4783;42.734;23.288;2023-06-22T11:22:40;8.57;;;6.82;;
9489;SDS011;4783;42.734;23.288;2023-06-22T11:25:05;7.18;;;6.40;;
9489;SDS011;4783;42.734;23.288;2023-06-22T11:27:31;7.07;;;5.97;;
9489;SDS011;4783;42.734;23.288;2023-06-22T11:29:56;8.45;;;6.55;;
9489;SDS011;4783;42.734;23.288;2023-06-22T11:32:22;12.32;;;7.20;;
9489;SDS011;4783;42.734;23.288;2023-06-22T11:34:47;15.00;;;7.15;;
9489;SDS011;4783;42.734;23.288;2023-06-22T11:37:12;61.77;;;9.03;;
9489;SDS011;4783;42.734;23.288;2023-06-22T12:44:34;9.95;;;6.60;;
9489;SDS011;4783;42.734;23.288;2023-06-22T12:46:59;9.50;;;6.05;;
9489;SDS011;4783;42.734;23.288;2023-06-22T12:49:24;9.02;;;5.97;;
9489;SDS011;4783;42.734;23.288;2023-06-22T12:51:50;8.10;;;5.05;;
9489;SDS011;4783;42.734;23.288;2023-06-22T12:54:15;9.45;;;5.43;;
9489;SDS011;4783;42.734;23.288;2023-06-22T12:56:40;9.27;;;5.25;;
9489;SDS011;4783;42.734;23.288;2023-06-22T12:59:05;12.65;;;5.93;;
9489;SDS011;4783;42.734;23.288;2023-06-22T13:01:31;11.30;;;5.43;;
9489;SDS011;4783;42.734;23.288;2023-06-22T13:03:57;7.90;;;5.57;;
9489;SDS011;4783;42.734;23.288;2023-06-22T13:06:22;7.18;;;5.45;;
9489;SDS011;4783;42.734;23.288;2023-06-22T15:20:53;9.10;;;7.72;;
9489;SDS011;4783;42.734;23.288;2023-06-22T15:23:18;12.15;;;8.40;;
9489;SDS011;4783;42.734;23.288;2023-06-22T15:25:43;10.90;;;8.15;;
9489;SDS011;4783;42.734;23.288;2023-06-22T15:28:10;11.65;;;8.10;;
9489;SDS011;4783;42.734;23.288;2023-06-22T15:30:35;16.70;;;7.55;;
9489;SDS011;4783;42.734;23.288;2023-06-22T15:33:00;11.52;;;7.55;;
9489;SDS011;4783;42.734;23.288;2023-06-22T15:35:25;10.27;;;7.53;;
9489;SDS011;4783;42.734;23.288;2023-06-22T15:37:51;14.23;;;6.90;;
9489;SDS011;4783;42.734;23.288;2023-06-22T15:40:16;7.10;;;6.40;;
9489;SDS011;4783;42.734;23.288;2023-06-22T15:42:41;7.68;;;6.28;;
9489;SDS011;4783;42.734;23.288;2023-06-22T15:45:07;7.57;;;5.90;;
9489;SDS011;4783;42.734;23.288;2023-06-22T15:47:32;7.95;;;6.72;;
